createdAt,value
2019-03-09T00:00:46.608Z,0.20
2019-03-09T00:03:15.837Z,0.10
2019-03-09T00:05:43.321Z,0.10
2019-03-09T00:08:10.569Z,0.10
2019-03-09T00:10:38.464Z,0.10
2019-03-09T00:13:06.295Z,0.10
2019-03-09T00:15:33.598Z,0.00
2019-03-09T00:18:00.996Z,0.10
2019-03-09T00:20:28.441Z,0.10
2019-03-09T00:23:04.371Z,0.10
2019-03-09T00:25:35.722Z,0.10
2019-03-09T00:28:23.417Z,0.20
2019-03-09T00:31:05.104Z,0.10
2019-03-09T00:33:32.665Z,0.10
2019-03-09T00:36:00.130Z,0.17
2019-03-09T00:38:27.368Z,0.10
2019-03-09T00:40:54.656Z,0.20
2019-03-09T00:43:22.197Z,0.20
2019-03-09T00:45:49.720Z,0.10
2019-03-09T00:48:17.286Z,0.30
2019-03-09T00:50:44.616Z,0.13
2019-03-09T00:53:11.936Z,0.10
2019-03-09T00:55:39.469Z,0.10
2019-03-09T00:58:06.930Z,0.10
2019-03-09T01:00:34.336Z,0.07
2019-03-09T01:03:02.113Z,0.10
2019-03-09T01:05:29.445Z,0.10
2019-03-09T01:07:56.979Z,0.17
2019-03-09T01:10:24.505Z,0.10
2019-03-09T01:12:52.037Z,0.20
2019-03-09T01:15:20.784Z,0.10
2019-03-09T01:17:48.247Z,0.20
2019-03-09T01:20:15.578Z,0.20
2019-03-09T01:22:43.197Z,0.07
2019-03-09T01:25:10.539Z,0.20
2019-03-09T01:27:38.420Z,0.20
2019-03-09T01:30:08.526Z,0.20
2019-03-09T01:32:49.293Z,0.20
2019-03-09T01:35:17.921Z,0.20
2019-03-09T01:37:45.131Z,0.10
2019-03-09T01:40:12.436Z,0.10
2019-03-09T01:42:40.120Z,0.20
2019-03-09T01:45:08.595Z,0.10
2019-03-09T01:47:35.944Z,0.30
2019-03-09T01:50:04.060Z,0.10
2019-03-09T01:52:31.513Z,0.10
2019-03-09T01:54:58.832Z,0.20
2019-03-09T01:57:26.340Z,0.10
2019-03-09T01:59:53.636Z,0.20
2019-03-09T02:02:20.890Z,0.30
2019-03-09T02:04:48.225Z,0.30
2019-03-09T02:07:15.572Z,0.10
2019-03-09T02:09:43.066Z,0.10
2019-03-09T02:12:10.413Z,0.10
2019-03-09T02:14:38.580Z,0.20
2019-03-09T02:17:05.956Z,0.20
2019-03-09T02:19:34.300Z,0.20
2019-03-09T02:22:01.941Z,0.10
2019-03-09T02:24:29.127Z,0.10
2019-03-09T02:26:56.708Z,0.20
2019-03-09T02:29:24.265Z,0.10
2019-03-09T02:31:51.892Z,0.10
2019-03-09T02:34:19.305Z,0.20
2019-03-09T02:36:46.610Z,0.13
2019-03-09T02:39:33.620Z,0.10
2019-03-09T02:42:01.140Z,0.17
2019-03-09T02:44:28.573Z,0.20
2019-03-09T02:46:56.006Z,0.10
2019-03-09T02:49:23.342Z,0.10
2019-03-09T02:51:50.837Z,0.20
2019-03-09T02:54:18.155Z,0.10
2019-03-09T02:56:45.716Z,0.10
2019-03-09T02:59:13.150Z,0.20
2019-03-09T03:02:00.604Z,0.20
2019-03-09T03:04:30.499Z,0.20
2019-03-09T03:07:03.153Z,0.10
2019-03-09T03:09:34.305Z,0.10
2019-03-09T03:12:23.837Z,0.10
2019-03-09T03:14:55.003Z,0.20
2019-03-09T03:17:24.473Z,0.10
2019-03-09T03:19:51.991Z,0.00
2019-03-09T03:22:21.115Z,0.10
2019-03-09T03:24:50.165Z,0.20
2019-03-09T03:27:20.676Z,0.10
2019-03-09T03:29:50.739Z,0.10
2019-03-09T03:32:19.926Z,0.10
2019-03-09T03:34:52.678Z,0.10
2019-03-09T03:37:21.152Z,0.10
2019-03-09T03:39:49.972Z,0.10
2019-03-09T03:42:21.410Z,0.20
2019-03-09T03:44:48.925Z,0.10
2019-03-09T03:47:16.550Z,0.10
2019-03-09T03:49:43.915Z,0.03
2019-03-09T03:52:11.198Z,0.10
2019-03-09T03:54:39.448Z,0.10
2019-03-09T03:57:06.970Z,0.10
2019-03-09T03:59:34.346Z,0.10
2019-03-09T04:02:01.655Z,0.20
2019-03-09T04:04:29.213Z,0.13
2019-03-09T04:06:56.561Z,0.10
2019-03-09T04:09:24.089Z,0.10
2019-03-09T04:11:52.299Z,0.10
2019-03-09T04:14:21.674Z,0.17
2019-03-09T04:16:49.233Z,0.10
2019-03-09T04:19:16.478Z,0.13
2019-03-09T04:21:43.850Z,0.20
2019-03-09T04:24:11.081Z,0.10
2019-03-09T04:26:38.950Z,0.10
2019-03-09T04:29:06.149Z,0.10
2019-03-09T04:31:33.401Z,0.10
2019-03-09T04:34:00.781Z,0.20
2019-03-09T04:36:28.077Z,0.10
2019-03-09T04:38:55.404Z,0.20
2019-03-09T04:41:22.716Z,0.10
2019-03-09T04:43:49.925Z,0.17
2019-03-09T04:46:17.139Z,0.10
2019-03-09T04:48:44.440Z,0.27
2019-03-09T04:51:11.801Z,0.10
2019-03-09T04:53:39.420Z,0.20
2019-03-09T04:56:06.844Z,0.10
2019-03-09T04:58:34.355Z,0.10
2019-03-09T05:01:01.796Z,0.10
2019-03-09T05:03:30.305Z,0.20
2019-03-09T05:05:57.701Z,0.13
2019-03-09T05:09:04.968Z,0.10
2019-03-09T05:11:33.617Z,0.10
2019-03-09T05:14:04.857Z,0.10
2019-03-09T05:16:32.177Z,0.20
2019-03-09T05:18:59.379Z,0.10
2019-03-09T05:21:26.644Z,0.10
2019-03-09T05:23:53.933Z,0.10
2019-03-09T05:26:21.243Z,0.10
2019-03-09T05:28:48.817Z,0.10
2019-03-09T05:31:16.173Z,0.13
2019-03-09T05:33:43.374Z,0.10
2019-03-09T05:36:11.094Z,0.10
2019-03-09T05:38:39.087Z,0.13
2019-03-09T05:41:06.465Z,0.30
2019-03-09T05:43:33.661Z,0.10
2019-03-09T05:46:00.905Z,0.10
2019-03-09T05:48:28.224Z,0.10
2019-03-09T05:50:55.465Z,0.10
2019-03-09T05:53:23.787Z,0.00
2019-03-09T05:55:51.195Z,0.10
2019-03-09T05:58:18.387Z,0.23
2019-03-09T06:00:45.917Z,0.10
2019-03-09T06:03:13.085Z,0.10
2019-03-09T06:05:55.673Z,0.10
2019-03-09T06:08:22.987Z,0.10
2019-03-09T06:10:50.298Z,0.10
2019-03-09T06:13:17.534Z,0.10
2019-03-09T06:15:44.791Z,0.03
2019-03-09T06:18:12.098Z,0.17
2019-03-09T06:20:39.486Z,0.10
2019-03-09T06:23:06.721Z,0.10
2019-03-09T06:25:34.021Z,0.20
2019-03-09T06:28:01.345Z,0.10
2019-03-09T06:30:28.611Z,0.13
2019-03-09T06:33:19.337Z,0.03
2019-03-09T06:35:48.829Z,0.10
2019-03-09T06:38:40.082Z,0.20
2019-03-09T06:41:09.288Z,0.10
2019-03-09T06:43:36.504Z,0.20
2019-03-09T06:46:04.276Z,0.20
2019-03-09T06:48:31.591Z,0.10
2019-03-09T06:50:58.892Z,0.20
2019-03-09T06:53:27.940Z,0.20
2019-03-09T06:55:55.328Z,0.10
2019-03-09T06:58:22.675Z,0.10
2019-03-09T07:00:49.928Z,0.10
2019-03-09T07:03:17.381Z,0.10
2019-03-09T07:05:44.584Z,0.10
2019-03-09T07:08:11.808Z,0.00
2019-03-09T07:10:39.511Z,0.10
2019-03-09T07:13:07.014Z,0.10
2019-03-09T07:15:37.748Z,0.10
2019-03-09T07:18:13.379Z,0.13
2019-03-09T07:20:40.730Z,0.10
2019-03-09T07:23:08.214Z,0.10
2019-03-09T07:25:35.442Z,0.10
2019-03-09T07:28:10.119Z,0.10
2019-03-09T07:30:39.131Z,0.07
2019-03-09T07:33:06.402Z,0.10
2019-03-09T07:35:33.897Z,0.10
2019-03-09T07:38:01.362Z,0.10
2019-03-09T07:40:28.727Z,0.17
2019-03-09T07:42:56.077Z,0.20
2019-03-09T07:45:23.497Z,0.10
2019-03-09T07:47:50.991Z,0.10
2019-03-09T07:50:18.393Z,0.10
2019-03-09T07:52:45.749Z,0.20
2019-03-09T07:55:13.566Z,0.10
2019-03-09T07:57:41.189Z,0.10
2019-03-09T08:00:11.048Z,0.20
2019-03-09T08:02:38.758Z,0.00
2019-03-09T08:05:06.015Z,0.20
2019-03-09T08:07:33.472Z,0.03
2019-03-09T08:10:00.696Z,0.10
2019-03-09T08:12:31.111Z,0.27
2019-03-09T08:14:58.430Z,0.20
2019-03-09T08:17:25.633Z,0.10
2019-03-09T08:19:53.066Z,0.10
2019-03-09T08:22:20.418Z,0.10
2019-03-09T08:24:47.745Z,0.10
2019-03-09T08:27:16.145Z,0.10
2019-03-09T08:29:43.481Z,0.20
2019-03-09T08:32:10.681Z,0.10
2019-03-09T08:34:39.144Z,0.10
2019-03-09T08:37:06.456Z,0.10
2019-03-09T08:39:33.780Z,0.10
2019-03-09T08:42:01.090Z,0.20
2019-03-09T08:44:29.424Z,0.20
2019-03-09T08:46:57.121Z,0.20
2019-03-09T08:49:24.468Z,0.10
2019-03-09T08:51:51.691Z,0.10
2019-03-09T08:54:19.118Z,0.20
2019-03-09T08:56:46.385Z,0.10
2019-03-09T08:59:13.917Z,0.20
2019-03-09T09:01:41.115Z,0.10
2019-03-09T09:04:08.432Z,0.10
2019-03-09T09:06:35.749Z,0.17
2019-03-09T09:09:04.318Z,0.13
2019-03-09T09:11:33.512Z,0.10
2019-03-09T09:14:00.736Z,0.20
2019-03-09T09:16:28.552Z,0.20
2019-03-09T09:18:57.576Z,0.10
2019-03-09T09:21:24.797Z,0.10
2019-03-09T09:23:53.113Z,0.10
2019-03-09T09:26:20.422Z,0.10
2019-03-09T09:28:47.770Z,0.10
2019-03-09T09:31:14.960Z,0.10
2019-03-09T09:33:42.212Z,0.20
2019-03-09T09:36:09.748Z,0.10
2019-03-09T09:38:37.745Z,0.10
2019-03-09T09:41:05.105Z,0.20
2019-03-09T09:43:32.410Z,0.10
2019-03-09T09:45:59.746Z,0.03
2019-03-09T09:48:26.956Z,0.10
2019-03-09T09:50:54.353Z,0.10
2019-03-09T09:53:23.438Z,0.23
2019-03-09T09:55:50.996Z,0.10
2019-03-09T09:58:18.279Z,0.00
2019-03-09T10:00:46.363Z,0.10
2019-03-09T10:03:13.648Z,0.10
2019-03-09T10:05:40.892Z,0.10
2019-03-09T10:08:08.220Z,0.10
2019-03-09T10:10:35.442Z,0.20
2019-03-09T10:13:02.757Z,0.10
2019-03-09T10:15:30.080Z,0.10
2019-03-09T10:17:57.452Z,0.20
2019-03-09T10:20:24.743Z,0.10
2019-03-09T10:23:03.085Z,0.10
2019-03-09T10:25:21.200Z,0.20
2019-03-09T10:27:48.513Z,0.10
2019-03-09T10:30:17.557Z,0.03
2019-03-09T10:32:45.246Z,0.10
2019-03-09T10:35:12.594Z,0.10
2019-03-09T10:37:40.165Z,0.10
2019-03-09T10:40:07.784Z,0.10
2019-03-09T10:42:35.357Z,0.17
2019-03-09T10:45:03.084Z,0.20
2019-03-09T10:47:30.496Z,0.13
2019-03-09T10:49:57.961Z,0.10
2019-03-09T10:52:25.284Z,0.10
2019-03-09T10:54:52.622Z,0.17
2019-03-09T10:57:20.166Z,0.17
2019-03-09T10:59:47.682Z,0.13
2019-03-09T11:02:15.106Z,0.10
2019-03-09T11:04:42.660Z,0.07
2019-03-09T11:07:10.320Z,0.13
2019-03-09T11:09:38.080Z,0.20
2019-03-09T11:12:05.704Z,0.10
2019-03-09T11:14:33.160Z,0.00
2019-03-09T11:17:00.592Z,0.10
2019-03-09T11:19:28.300Z,0.10
2019-03-09T11:21:55.682Z,0.20
2019-03-09T11:24:23.048Z,0.10
2019-03-09T11:26:50.458Z,0.20
2019-03-09T11:29:17.777Z,0.10
2019-03-09T11:31:45.084Z,0.20
2019-03-09T11:34:12.428Z,0.10
2019-03-09T11:36:39.944Z,0.10
2019-03-09T11:39:07.266Z,0.10
2019-03-09T11:41:35.330Z,0.13
2019-03-09T11:44:02.626Z,0.10
2019-03-09T11:46:29.971Z,0.10
2019-03-09T11:48:58.298Z,0.30
2019-03-09T11:51:25.810Z,0.20
2019-03-09T11:53:53.000Z,0.10
2019-03-09T11:56:20.339Z,0.10
2019-03-09T11:58:47.641Z,0.20
2019-03-09T12:01:15.208Z,0.20
2019-03-09T12:03:42.584Z,0.20
2019-03-09T12:06:12.391Z,0.20
2019-03-09T12:08:41.086Z,0.10
2019-03-09T12:11:10.194Z,0.20
2019-03-09T12:13:38.316Z,0.23
2019-03-09T12:16:05.891Z,0.20
2019-03-09T12:18:33.248Z,0.30
2019-03-09T12:21:01.698Z,0.20
2019-03-09T12:23:29.005Z,0.10
2019-03-09T12:25:56.220Z,0.10
2019-03-09T12:28:23.632Z,0.10
2019-03-09T12:30:50.954Z,0.10
2019-03-09T12:33:19.280Z,0.20
2019-03-09T12:35:46.646Z,0.20
2019-03-09T12:38:13.976Z,0.10
2019-03-09T12:40:41.320Z,0.10
2019-03-09T12:43:08.645Z,0.20
2019-03-09T12:45:35.972Z,0.23
2019-03-09T12:48:03.328Z,0.20
2019-03-09T12:50:30.685Z,0.10
2019-03-09T12:52:57.993Z,0.20
2019-03-09T12:55:25.186Z,0.10
2019-03-09T12:57:52.664Z,0.20
2019-03-09T13:00:20.182Z,0.13
2019-03-09T13:02:48.163Z,0.13
2019-03-09T13:05:16.202Z,0.10
2019-03-09T13:07:44.095Z,0.20
2019-03-09T13:10:11.397Z,0.13
2019-03-09T13:12:39.494Z,0.20
2019-03-09T13:15:07.072Z,0.10
2019-03-09T13:17:34.401Z,0.20
2019-03-09T13:20:01.644Z,0.17
2019-03-09T13:22:29.289Z,0.20
2019-03-09T13:24:59.996Z,0.10
2019-03-09T13:27:27.570Z,0.13
2019-03-09T13:29:54.872Z,0.20
2019-03-09T13:32:22.242Z,0.10
2019-03-09T13:34:49.602Z,0.07
2019-03-09T13:37:16.929Z,0.10
2019-03-09T13:39:44.576Z,0.10
2019-03-09T13:42:12.034Z,0.10
2019-03-09T13:44:39.729Z,0.20
2019-03-09T13:47:07.190Z,0.00
2019-03-09T13:49:34.412Z,0.10
2019-03-09T13:52:01.745Z,0.10
2019-03-09T13:54:29.087Z,0.13
2019-03-09T13:56:57.630Z,0.20
2019-03-09T13:59:27.262Z,0.20
2019-03-09T14:01:54.260Z,0.10
2019-03-09T14:04:21.623Z,0.13
2019-03-09T14:06:48.954Z,0.10
2019-03-09T14:09:16.589Z,0.10
2019-03-09T14:11:43.954Z,0.10
2019-03-09T14:14:12.063Z,0.10
2019-03-09T14:16:39.647Z,0.13
2019-03-09T14:19:07.033Z,0.10
2019-03-09T14:21:34.397Z,0.10
2019-03-09T14:24:01.769Z,0.23
2019-03-09T14:26:29.099Z,0.10
2019-03-09T14:28:56.729Z,0.17
2019-03-09T14:31:24.056Z,0.30
2019-03-09T14:33:51.397Z,0.20
2019-03-09T14:36:18.704Z,0.10
2019-03-09T14:38:46.085Z,0.20
2019-03-09T14:41:13.406Z,0.20
2019-03-09T14:43:40.838Z,0.20
2019-03-09T14:46:08.123Z,0.20
2019-03-09T14:48:35.468Z,0.17
2019-03-09T14:51:02.816Z,0.20
2019-03-09T14:53:30.360Z,0.20
2019-03-09T14:55:57.743Z,0.10
2019-03-09T14:58:25.044Z,0.20
2019-03-09T15:00:52.376Z,0.10
2019-03-09T15:03:19.699Z,0.20
2019-03-09T15:05:46.922Z,0.23
2019-03-09T15:08:14.258Z,0.27
2019-03-09T15:10:41.558Z,0.20
2019-03-09T15:13:08.876Z,0.20
2019-03-09T15:15:36.208Z,0.20
2019-03-09T15:18:03.431Z,0.20
2019-03-09T15:20:30.740Z,0.10
2019-03-09T15:22:57.993Z,0.10
2019-03-09T15:25:25.336Z,0.10
2019-03-09T15:27:52.877Z,0.10
2019-03-09T15:30:20.284Z,0.10
2019-03-09T15:32:47.640Z,0.30
2019-03-09T15:35:15.161Z,0.20
2019-03-09T15:37:42.589Z,0.10
2019-03-09T15:40:10.492Z,0.20
2019-03-09T15:42:38.096Z,0.20
2019-03-09T15:45:05.686Z,0.30
2019-03-09T15:47:33.205Z,0.10
2019-03-09T15:50:00.577Z,0.20
2019-03-09T15:52:29.494Z,0.20
2019-03-09T15:54:56.789Z,0.10
2019-03-09T15:57:24.280Z,0.10
2019-03-09T15:59:53.197Z,0.10
2019-03-09T16:02:20.869Z,0.20
2019-03-09T16:04:48.086Z,0.10
2019-03-09T16:07:15.564Z,0.20
2019-03-09T16:09:42.776Z,0.10
2019-03-09T16:12:10.203Z,0.27
2019-03-09T16:14:37.700Z,0.13
2019-03-09T16:17:06.194Z,0.20
2019-03-09T16:19:34.144Z,0.30
2019-03-09T16:22:01.997Z,0.20
2019-03-09T16:24:31.389Z,0.20
2019-03-09T16:26:58.811Z,0.20
2019-03-09T16:29:26.996Z,0.40
2019-03-09T16:31:54.352Z,0.10
2019-03-09T16:34:21.817Z,0.10
2019-03-09T16:36:49.136Z,0.30
2019-03-09T16:39:16.424Z,0.20
2019-03-09T16:41:43.984Z,0.20
2019-03-09T16:44:11.541Z,0.10
2019-03-09T16:46:39.301Z,0.40
2019-03-09T16:49:06.838Z,0.30
2019-03-09T16:51:34.174Z,0.30
2019-03-09T16:54:01.492Z,0.20
2019-03-09T16:56:28.852Z,0.30
2019-03-09T16:58:58.101Z,0.23
2019-03-09T17:01:25.624Z,0.30
2019-03-09T17:03:52.816Z,0.30
2019-03-09T17:06:20.153Z,0.30
2019-03-09T17:08:47.380Z,0.20
2019-03-09T17:11:14.750Z,0.30
2019-03-09T17:13:42.089Z,0.30
2019-03-09T17:16:09.413Z,0.40
2019-03-09T17:18:36.754Z,0.20
2019-03-09T17:21:04.096Z,0.40
2019-03-09T17:23:31.516Z,0.27
2019-03-09T17:25:59.053Z,0.40
2019-03-09T17:28:26.539Z,0.23
2019-03-09T17:30:53.828Z,0.30
2019-03-09T17:33:21.154Z,0.30
2019-03-09T17:35:48.460Z,0.20
2019-03-09T17:38:15.686Z,0.30
2019-03-09T17:40:43.781Z,0.30
2019-03-09T17:43:11.127Z,0.60
2019-03-09T17:45:39.007Z,0.60
2019-03-09T17:48:06.309Z,0.43
2019-03-09T17:50:33.655Z,0.50
2019-03-09T17:53:00.985Z,0.33
2019-03-09T17:55:28.256Z,0.30
2019-03-09T17:57:55.596Z,0.50
2019-03-09T18:01:51.832Z,0.40
2019-03-09T18:04:19.471Z,0.40
2019-03-09T18:06:46.808Z,0.40
2019-03-09T18:09:14.158Z,0.53
2019-03-09T18:11:41.497Z,0.47
2019-03-09T18:14:09.038Z,0.50
2019-03-09T18:16:36.493Z,0.37
2019-03-09T18:19:04.238Z,0.40
2019-03-09T18:21:32.616Z,0.50
2019-03-09T18:24:00.168Z,0.47
2019-03-09T18:26:27.555Z,0.50
2019-03-09T18:28:54.861Z,0.50
2019-03-09T18:31:22.241Z,0.40
2019-03-09T18:33:49.532Z,0.40
2019-03-09T18:36:16.892Z,0.40
2019-03-09T18:38:44.208Z,0.60
2019-03-09T18:41:11.563Z,0.50
2019-03-09T18:43:40.184Z,0.40
2019-03-09T18:46:07.493Z,0.60
2019-03-09T18:48:35.024Z,0.50
2019-03-09T18:51:02.432Z,0.40
2019-03-09T18:53:30.310Z,0.50
2019-03-09T18:55:59.386Z,0.70
2019-03-09T18:58:27.144Z,0.60
2019-03-09T19:00:54.860Z,0.60
2019-03-09T19:03:22.454Z,0.60
2019-03-09T19:05:50.048Z,0.40
2019-03-09T19:08:17.409Z,0.60
2019-03-09T19:10:44.713Z,0.53
2019-03-09T19:13:12.164Z,0.50
2019-03-09T19:15:39.414Z,0.40
2019-03-09T19:18:06.745Z,0.30
2019-03-09T19:20:34.067Z,0.50
2019-03-09T19:23:01.668Z,0.40
2019-03-09T19:25:28.977Z,0.50
2019-03-09T19:27:56.220Z,0.40
2019-03-09T19:30:23.525Z,0.40
2019-03-09T19:32:59.913Z,0.77
2019-03-09T19:35:20.242Z,0.70
2019-03-09T19:37:47.844Z,0.60
2019-03-09T19:40:15.728Z,0.53
2019-03-09T19:42:43.160Z,0.40
2019-03-09T19:45:11.342Z,0.30
2019-03-09T19:47:40.051Z,0.50
2019-03-09T19:50:09.644Z,0.70
2019-03-09T19:52:37.689Z,0.43
2019-03-09T19:55:05.377Z,0.73
2019-03-09T19:57:34.125Z,0.40
2019-03-09T20:00:01.912Z,0.50
2019-03-09T20:02:29.359Z,0.50
2019-03-09T20:04:57.136Z,0.60
2019-03-09T20:07:24.530Z,0.60
2019-03-09T20:09:51.866Z,0.53
2019-03-09T20:12:20.803Z,0.50
2019-03-09T20:14:48.588Z,0.70
2019-03-09T20:17:15.899Z,0.43
2019-03-09T20:19:43.201Z,0.70
2019-03-09T20:22:10.520Z,0.40
2019-03-09T20:24:38.458Z,0.50
2019-03-09T20:27:07.216Z,0.50
2019-03-09T20:29:34.428Z,0.63
2019-03-09T20:32:01.891Z,0.60
2019-03-09T20:34:29.200Z,0.67
2019-03-09T20:36:56.502Z,0.50
2019-03-09T20:39:23.969Z,0.40
2019-03-09T20:41:51.827Z,0.40
2019-03-09T20:44:19.220Z,0.60
2019-03-09T20:46:46.584Z,0.60
2019-03-09T20:49:13.905Z,0.40
2019-03-09T20:51:41.528Z,0.60
2019-03-09T20:54:08.840Z,0.60
2019-03-09T20:57:31.497Z,0.50
2019-03-09T20:59:58.941Z,0.70
2019-03-09T21:02:26.268Z,0.50
2019-03-09T21:04:53.493Z,0.80
2019-03-09T21:07:20.912Z,0.60
2019-03-09T21:09:48.281Z,0.77
2019-03-09T21:12:15.486Z,0.30
2019-03-09T21:14:42.721Z,0.60
2019-03-09T21:17:10.021Z,0.60
2019-03-09T21:19:39.181Z,0.47
2019-03-09T21:22:06.384Z,0.40
2019-03-09T21:24:33.647Z,0.57
2019-03-09T21:27:01.033Z,0.40
2019-03-09T21:29:28.356Z,0.40
2019-03-09T21:31:55.560Z,0.40
2019-03-09T21:34:22.801Z,0.50
2019-03-09T21:36:50.212Z,0.50
2019-03-09T21:39:17.495Z,0.60
2019-03-09T21:41:44.809Z,0.60
2019-03-09T21:44:12.053Z,0.60
2019-03-09T21:46:39.635Z,0.40
2019-03-09T21:49:07.002Z,0.40
2019-03-09T21:51:35.221Z,0.50
2019-03-09T21:54:02.553Z,0.73
2019-03-09T21:56:29.861Z,0.83
2019-03-09T21:58:57.225Z,0.60
2019-03-09T22:01:24.437Z,0.47
2019-03-09T22:03:51.658Z,0.50
2019-03-09T22:06:18.873Z,0.60
2019-03-09T22:08:46.215Z,0.67
2019-03-09T22:11:13.466Z,0.70
2019-03-09T22:13:40.992Z,0.70
2019-03-09T22:16:08.209Z,0.60
2019-03-09T22:18:35.692Z,0.60
2019-03-09T22:21:03.012Z,0.60
2019-03-09T22:23:30.339Z,0.50
2019-03-09T22:25:57.700Z,0.50
2019-03-09T22:28:25.001Z,0.50
2019-03-09T22:30:52.302Z,0.60
2019-03-09T22:33:19.605Z,0.50
2019-03-09T22:35:46.813Z,0.50
2019-03-09T22:38:15.097Z,0.80
2019-03-09T22:40:42.529Z,0.50
2019-03-09T22:43:10.105Z,0.40
2019-03-09T22:45:37.705Z,0.50
2019-03-09T22:48:05.017Z,0.60
2019-03-09T22:50:32.364Z,0.40
2019-03-09T22:52:59.565Z,0.50
2019-03-09T22:55:26.912Z,0.40
2019-03-09T22:57:54.217Z,0.50
2019-03-09T23:00:21.518Z,0.50
2019-03-09T23:02:50.733Z,0.50
2019-03-09T23:05:17.958Z,0.60
2019-03-09T23:07:45.460Z,0.60
2019-03-09T23:10:14.069Z,0.33
2019-03-09T23:12:41.381Z,0.67
2019-03-09T23:15:10.368Z,0.50
2019-03-09T23:17:38.250Z,0.40
2019-03-09T23:20:07.707Z,0.50
2019-03-09T23:22:35.108Z,0.60
2019-03-09T23:25:02.497Z,0.50
2019-03-09T23:27:29.797Z,0.50
2019-03-09T23:29:57.109Z,0.40
2019-03-09T23:32:24.417Z,0.40
2019-03-09T23:34:51.844Z,0.33
2019-03-09T23:37:19.289Z,0.57
2019-03-09T23:39:46.877Z,0.33
2019-03-09T23:42:15.636Z,0.50
2019-03-09T23:44:43.085Z,0.47
2019-03-09T23:47:11.472Z,0.43
2019-03-09T23:49:39.944Z,0.50
2019-03-09T23:52:07.147Z,0.50
2019-03-09T23:54:34.349Z,0.50
2019-03-09T23:57:02.042Z,0.60
2019-03-09T23:59:29.948Z,0.40
